Weather observations for the past three days for
Hillsboro, Hillsboro Municipal Airport
Imperial (Metric)
Date Time (cdt) Wind (mph) Vis. (mi.) Weather Sky Cond. Temperature (ºF) Relative Humidity Wind Chill (°F) Heat Index (°F) Pressure Precipitation (in)
Air Dwpt 6 hour altimeter (in) sea level (mb) 1 hr 3 hr 6 hr
Max. Min.
09 15:35 Calm 10.00 Fair CLR 89.1 58.5 36% 88 29.8 0.0
09 15:15 Calm 10.00 Fair CLR 89.6 58.5 35% 89 29.8 0.0
09 14:55 Calm 10.00 Fair CLR 88.3 57.6 35% 87 29.81 0.0
09 14:35 Calm 10.00 Fair CLR 89.1 59.7 37% 89 29.82 0.0
09 14:15 Calm 10.00 Fair CLR 87.8 61.7 42% 88 29.82 0.0
09 13:55 Calm 10.00 Fair CLR 87.4 61.2 41% 88 29.83 0.0
09 13:35 Calm 10.00 Fair CLR 86.9 62.4 44% 88 29.83 0.0
09 13:15 Calm 10.00 Fair CLR 86 62.6 46% 87 29.84 0.0
09 12:55 NW 3 10.00 Fair CLR 85.5 61 85.6 69.3 44% 86 29.84 0.0
09 12:35 Calm 10.00 Fair CLR 84.6 62.1 47% 85 29.84 0.0
09 12:15 N 3 10.00 Fair CLR 83.5 63 50% 84 29.85 0.0
09 11:55 NW 5 10.00 Fair CLR 83.5 65.3 54% 85 29.85 0.0
09 11:35 N 6 10.00 Fair CLR 82.2 63.5 53% 84 29.86 0.0
09 11:15 NW 5 10.00 Fair CLR 81.5 63.1 54% 83 29.86 0.0
09 10:55 N 6 10.00 Fair CLR 81 62.2 53% 82 29.86 0.0
09 10:35 NW 3 10.00 Fair CLR 79.9 65.1 61% 82 29.86 0.0
09 10:15 NW 3 10.00 Fair CLR 78.3 66.2 67% 80 29.86 0.0
09 09:55 N 5 10.00 Fair CLR 78.3 66.9 68% 80 29.85 0.0
09 09:35 W 3 10.00 Fair CLR 77.5 67.1 70% 79 29.86 0.0
09 09:15 W 3 10.00 Fair CLR 77.2 66.9 71% 79 29.86 0.0
09 08:55 Calm 10.00 Fair CLR 76.5 67.8 75% 78 29.84 0.0
09 08:35 Calm 10.00 Fair CLR 75.6 70.7 85% 76 29.84 0.0
09 08:15 Calm 10.00 Fair CLR 73.4 73.4 100% 29.83 0.0
09 07:55 Calm 7.00 Fair CLR 71.4 71.4 100% 29.82 0.0
09 07:35 NE 3 5.00 Fog/Mist CLR 69.8 69.8 100% 29.82 0.0
09 07:15 NE 3 4.00 Fog/Mist SCT011 69.4 69.4 100% 29.82 0.0
09 06:55 N 5 4.00 Fog/Mist BKN005 OVC009 69.8 69.8 70.7 68 100% 29.84 0.0
09 06:35 W 5 4.00 Fog/Mist OVC005 70 70 100% 29.82 0.0
09 06:15 SW 10 G 16 4.00 Fog/Mist OVC005 70.3 70.3 100% 29.79 0.0
09 05:55 S 12 G 16 4.00 Fog/Mist OVC005 70.2 70.2 100% 29.77 0.0
09 05:35 S 12 G 18 5.00 Fog/Mist OVC005 70 70 100% 29.77 0.0
09 05:15 S 13 5.00 Fog/Mist SCT003 SCT009 69.3 69.3 100% 29.76 0.0
09 04:55 S 8 4.00 Fog/Mist CLR 68.2 68.2 100% 29.79 0.0
09 04:35 S 6 4.00 Fog/Mist SCT011 68.2 68.2 100% 29.79 0.0
09 04:15 S 7 3.00 Fog/Mist BKN011 68 68 100% 29.8 0.0
09 03:55 S 6 5.00 Fog/Mist OVC011 68.7 68.7 100% 29.84 0.0
09 03:35 NW 6 4.00 Fog/Mist BKN013 BKN021 BKN029 68.5 68.5 100% 29.86 0.0
09 03:15 Calm 5.00 Fog/Mist SCT013 BKN019 OVC043 68.9 68.9 100% 29.86 0.0
09 02:55 Calm 7.00 Overcast OVC013 69.3 69.3 100% 29.88 0.0
09 02:35 Calm 7.00 Overcast BKN013 OVC020 68.9 68.9 100% 29.88 0.0
09 02:15 Calm 7.00 Mostly Cloudy BKN018 69.6 69.6 100% 29.87 0.0
09 01:55 Calm 7.00 Overcast OVC018 69.4 69.4 100% 29.85 0.0
09 01:35 Calm 7.00 Mostly Cloudy BKN018 70.3 70.3 100% 29.84 0.0
09 01:15 SE 3 7.00 Overcast OVC018 70.3 70.3 100% 29.84 0.0
09 00:55 SE 3 7.00 Overcast OVC018 70.9 70.9 100% 29.84 0.0
09 00:35 Calm 7.00 Overcast OVC018 70.7 70.7 100% 29.86 0.0
09 00:15 E 3 7.00 Overcast OVC020 70 70 100% 29.85 0.0
08 23:55 Calm 7.00 Overcast SCT019 OVC025 69.1 69.1 100% 29.85 0.0
08 23:35 Calm 5.00 Fog/Mist BKN022 BKN070 68.9 68.9 100% 29.84 0.0
08 23:15 Calm 7.00 Mostly Cloudy BKN023 BKN070 69.8 69.8 100% 29.83 0.0
08 22:55 Calm 7.00 Overcast BKN023 BKN055 OVC070 70.9 70.9 100% 29.84 0.0
08 22:35 Calm 7.00 NULL NULL 71.1 71.1 100% 29.83 0.0
08 22:15 Calm 7.00 Overcast SCT018 OVC070 71.1 71.1 100% 29.83 0.0
08 21:55 Calm 7.00 Overcast SCT016 OVC070 72.1 70.3 94% 29.81 0.0
08 21:35 Calm 7.00 Overcast OVC018 72.5 69.8 91% 29.81 0.0
08 21:15 S 3 10.00 Overcast OVC018 73.2 68.2 84% 29.8 0.0
08 20:55 S 3 0.00 NULL NULL 73.8 68 82% 29.8 0.0
08 20:35 S 8 0.00 NULL NULL 0 0 0% 29.79 0.0
08 20:15 S 8 10.00 Overcast OVC019 74.3 68 81% 29.79 0.0
08 19:55 S 5 10.00 Overcast OVC019 74.7 67.8 79% 29.78 0.0
08 19:35 S 7 0.00 NULL NULL 0 0 0% 29.78 0.0
08 19:15 S 9 10.00 Partly Cloudy SCT022 76.1 67.3 74% 78 29.78 0.0
08 18:55 SE 9 10.00 Fair CLR 76.1 66.9 76.5 66.2 73% 78 29.78 0.0
08 18:35 S 9 10.00 Partly Cloudy SCT050 76.5 66.9 72% 78 29.77 0.0
08 18:15 SE 7 10.00 Mostly Cloudy BKN050 75.7 66.6 73% 77 29.78 0.0
08 17:55 SE 7 10.00 Fair CLR 75.9 66.2 72% 77 29.79 0.0
08 17:35 SE 12 G 17 10.00 Fair CLR 75.4 65.8 72% 77 29.79 0.0
08 17:15 SE 10 10.00 Fair CLR 75.4 65.8 72% 77 29.79 0.0
08 16:55 SE 12 10.00 Mostly Cloudy BKN035 74.3 65.3 74% 29.8 0.0
08 16:35 SE 9 10.00 Overcast OVC035 72.5 64.6 76% 29.81 0.0
08 16:15 SE 6 10.00 Overcast BKN031 OVC037 71.4 64.2 78% 29.83 0.0
08 15:55 S 3 10.00 Overcast SCT021 BKN028 OVC033 70.9 63.5 78% 29.85 0.0
08 15:35 Calm 10.00 Overcast OVC024 71.1 62.8 75% 29.86 0.0
08 15:15 Calm 10.00 Overcast BKN028 OVC038 69.8 62.8 79% 29.87 0.0
08 14:55 SE 5 10.00 Overcast BKN028 OVC038 70.3 63.7 80% 29.86 0.0
08 14:35 Calm 10.00 Overcast OVC026 67.8 61.9 81% 29.87 0.0
08 14:15 Calm 10.00 Overcast OVC026 67.1 61.5 82% 29.88 0.0
08 13:55 SE 5 10.00 Light Drizzle OVC028 66.2 61 83% 29.88 0.0
08 13:35 SE 7 10.00 Overcast SCT022 OVC031 66.4 59.9 80% 29.89 0.0
08 13:15 S 6 7.00 Overcast BKN022 BKN028 OVC035 66.6 59.5 78% 29.91 0.0
08 12:55 SE 7 10.00 Overcast OVC024 68 59.5 69.4 55.4 74% 29.92 0.0
08 12:35 SE 7 10.00 Light Rain OVC024 68.4 59.5 74% 29.92 0.0
08 12:15 E 6 10.00 Overcast OVC024 69.1 59.5 72% 29.91 0.0
08 11:55 E 7 10.00 Overcast OVC024 67.8 58.5 72% 29.93 0.0
08 11:35 E 7 10.00 Overcast OVC026 67.6 58.3 72% 29.94 0.0
08 11:15 E 3 10.00 Overcast OVC026 67.6 57.9 71% 29.94 0.0
08 10:55 E 5 10.00 Overcast OVC026 67.8 57.9 71% 29.94 0.0
08 10:35 E 3 10.00 Overcast BKN026 OVC034 66.6 57.4 72% 29.94 0.0
08 10:15 E 3 10.00 Overcast BKN026 OVC036 64.8 56.5 75% 29.95 0.0
08 09:55 Calm 10.00 Overcast OVC024 63.9 56.3 77% 29.96 0.0
08 09:35 Calm 10.00 Overcast OVC022 63.5 56.7 79% 29.95 0.0
08 09:15 Calm 10.00 Overcast OVC022 63.1 56.1 78% 29.96 0.0
08 08:55 E 6 10.00 Overcast OVC022 63.5 60.6 90% 29.96 0.0
08 08:35 Calm 10.00 Overcast OVC022 62.1 61.7 99% 29.96 0.0
08 08:15 Calm 10.00 Overcast OVC020 61.3 60.8 98% 29.96 0.0
08 07:55 Calm 10.00 Overcast BKN022 OVC027 59.9 59.9 100% 29.95 0.0
08 07:35 Calm 10.00 Mostly Cloudy BKN027 57.6 57.6 100% 29.96 0.0
08 07:15 Calm 10.00 Partly Cloudy SCT031 55.6 55.6 100% 29.97 0.0
08 06:55 Calm 10.00 Partly Cloudy SCT031 55.8 55.8 59.4 54.5 100% 29.97 0.0
08 06:35 Calm 10.00 Fair CLR 55.9 55.9 100% 29.96 0.0
08 06:15 Calm 10.00 Fair CLR 57.9 57.9 100% 29.95 0.0
08 05:55 SE 5 10.00 Fair CLR 58.3 58.3 100% 29.95 0.0
08 05:35 SE 3 10.00 Fair CLR 59 58.1 97% 29.96 0.0
08 05:15 E 6 10.00 Partly Cloudy SCT110 59 59 100% 29.95 0.0
08 04:55 SE 5 10.00 Mostly Cloudy BKN110 59.2 59.2 100% 29.96 0.0
08 04:35 SE 6 10.00 Overcast OVC110 57.4 57.4 100% 29.95 0.0
08 04:15 Calm 10.00 Overcast OVC110 56.8 56.8 100% 29.97 0.0
08 03:55 Calm 10.00 Mostly Cloudy BKN100 56.5 56.5 100% 29.97 0.0
08 03:35 Calm 10.00 Mostly Cloudy BKN090 56.1 56.1 100% 29.98 0.0
08 03:15 Calm 10.00 Partly Cloudy SCT090 55.6 55.6 100% 29.97 0.0
08 02:55 Calm 10.00 Partly Cloudy SCT080 56.1 56.1 100% 29.97 0.0
08 02:35 Calm 10.00 Fair CLR 56.8 56.8 100% 29.97 0.0
08 02:15 E 3 10.00 Fair CLR 56.3 56.3 100% 29.97 0.0
08 01:55 Calm 10.00 Fair CLR 56.7 56.7 100% 29.98 0.0
08 01:35 Calm 10.00 Fair CLR 56.5 56.5 100% 29.98 0.0
08 01:15 Calm 10.00 Fair CLR 57.9 57.9 100% 29.99 0.0
08 00:55 Calm 10.00 Fair CLR 57.9 57.9 67.1 57.9 100% 30 0.0
08 00:35 Calm 10.00 Fair CLR 58.3 58.3 100% 30 0.0
08 00:15 Calm 10.00 Fair CLR 58.5 58.5 100% 30.01 0.0
07 23:55 Calm 10.00 Fair CLR 58.6 58.6 100% 30 0.0
07 23:35 Calm 10.00 Fair CLR 58.5 58.5 100% 30 0.0
07 23:15 Calm 10.00 Fair CLR 59 59 100% 30 0.0
07 22:55 Calm 10.00 Fair CLR 59.4 59.4 100% 29.99 0.0
07 22:35 Calm 10.00 Fair CLR 60.4 60.4 100% 29.99 0.0
07 22:15 E 3 10.00 Fair CLR 60.4 60.4 100% 29.98 0.0
07 21:55 SE 3 10.00 Partly Cloudy SCT120 60.8 60.8 100% 29.97 0.0
07 21:35 Calm 10.00 Fair CLR 61.7 58.1 88% 29.98 0.0
07 21:15 Calm 10.00 Fair CLR 62.2 57.2 84% 29.97 0.0
07 20:55 Calm 10.00 Fair CLR 63.1 57.2 81% 29.97 0.0
07 20:35 Calm 10.00 Fair CLR 63.1 58.6 85% 29.98 0.0
07 20:15 SE 3 10.00 Fair CLR 64.4 58.1 80% 29.97 0.0
07 19:55 Calm 10.00 Fair CLR 65.8 58.1 76% 29.97 0.0
07 19:35 Calm 10.00 Fair CLR 66.6 57.6 73% 29.97 0.0
07 19:15 Calm 10.00 Fair CLR 66.4 56.5 71% 29.98 0.0
07 18:55 Calm 10.00 Fair CLR 67.3 55.9 69.8 67.1 67% 29.98 0.0
07 18:35 Calm 10.00 Fair CLR 67.5 55.4 65% 29.99 0.0
07 18:15 S 3 10.00 Partly Cloudy SCT120 67.5 55 65% 30 0.0
07 17:55 E 5 10.00 Fair CLR 68.2 53.1 59% 29.96 0.0
07 17:35 Calm 10.00 Fair CLR 68.9 50 51% 30 0.0
07 17:15 E 5 10.00 Fair CLR 69.1 50.2 51% 29.99 0.0
07 16:55 NE 5 10.00 Fair CLR 69.1 50.4 51% 30 0.0
07 16:35 E 3 7.00 Fair CLR 69.1 52.9 56% 30 0.0
07 16:15 Calm 7.00 Fair CLR 68.9 52.2 55% 30.01 0.0
07 15:55 Calm 10.00 Partly Cloudy SCT120 69.3 52.9 56% 30.03 0.0
07 15:35 SE 3 10.00 Fair CLR 69.4 53.2 57% 30.03 0.0
07 15:15 SE 3 10.00 Partly Cloudy SCT120 69.3 53.2 57% 30.04 0.0
07 14:55 E 7 10.00 Partly Cloudy SCT120 69.3 53.4 57% 30.03 0.0
07 14:35 E 7 10.00 Partly Cloudy SCT120 69.1 53.4 58% 30.03 0.0
07 14:15 E 5 10.00 Partly Cloudy SCT120 67.8 53.2 60% 30.04 0.0
07 13:55 SE 3 10.00 Partly Cloudy SCT120 67.3 52.2 59% 30.06 0.0
07 13:35 E 6 10.00 Fair CLR 67.3 52.2 59% 30.07 0.0
07 13:15 E 5 10.00 Fair CLR 67.5 52.2 58% 30.08 0.0
07 12:55 E 8 10.00 Fair CLR 67.3 52.2 67.5 52.9 59% 30.06 0.0
07 12:35 NE 6 10.00 Fair CLR 66.2 51.1 58% 30.07 0.0
07 12:15 NE 9 10.00 Fair CLR 66.4 51.1 58% 30.08 0.0
07 11:55 N 6 10.00 Fair CLR 65.8 50.9 59% 30.08 0.0
07 11:35 NE 9 10.00 Fair CLR 66.6 51.1 58% 30.09 0.0
07 11:15 NE 9 10.00 Fair CLR 64.4 50.9 62% 30.1 0.0
07 10:55 NE 9 10.00 Fair CLR 65.8 51.6 60% 30.1 0.0
07 10:35 NE 9 10.00 Fair CLR 64 51.1 63% 30.1 0.0
07 10:15 NE 8 10.00 Fair CLR 62.4 50.9 66% 30.1 0.0
07 09:55 NE 8 10.00 Fair CLR 61.3 49.6 66% 30.11 0.0
07 09:35 NE 9 10.00 Fair CLR 60.8 50.5 69% 30.11 0.0
07 08:55 N 6 10.00 Fair CLR 57.6 50.7 78% 30.12 0.0
07 08:35 NE 5 10.00 Fair CLR 55.9 55.2 97% 30.11 0.0
07 08:15 N 6 10.00 Fair CLR 55.2 55.2 100% 30.12 0.0
07 07:55 N 3 10.00 Fair CLR 54.5 54.5 100% 30.13 0.0
07 07:35 N 6 10.00 Fair CLR 53.6 53.6 100% 30.12 0.0
07 07:15 N 3 10.00 Partly Cloudy SCT032 52.9 52.9 100% 30.13 0.0
07 06:55 N 5 10.00 Overcast OVC032 53.1 53.1 57.6 52.2 100% 30.12 0.0
07 06:35 N 3 10.00 Overcast OVC032 53.2 53.2 100% 30.12 0.0
07 06:15 Calm 10.00 Overcast OVC032 52.7 52.7 100% 30.11 0.0
07 05:55 Calm 10.00 Mostly Cloudy BKN032 52.2 52.2 100% 30.1 0.0
07 05:35 NW 3 10.00 Fair CLR 52.9 52.9 100% 30.09 0.0
07 05:15 N 3 10.00 Fair CLR 53.6 53.6 100% 30.07 0.0
07 04:55 N 5 10.00 Fair CLR 54.5 54.5 100% 30.05 0.0
07 04:35 NE 6 10.00 Partly Cloudy SCT010 55.4 55.4 100% 30.04 0.0
07 04:15 N 6 10.00 Overcast OVC010 56.7 55 94% 30.03 0.0
07 03:55 NE 10 10.00 Overcast OVC010 57 54.5 91% 30.03 0.0
07 03:35 NE 6 10.00 Overcast OVC010 57.2 55.9 96% 30.03 0.0
07 03:15 NE 7 10.00 Overcast OVC010 57.2 57.2 100% 30.03 0.0
07 02:55 N 6 10.00 Overcast OVC008 57.2 57.2 100% 30.03 0.0
07 02:35 NE 6 10.00 Overcast OVC010 56.8 56.5 99% 30.02 0.0
07 02:15 NE 10 G 17 10.00 Overcast OVC010 56.8 54.3 91% 30 0.0
07 01:55 NE 10 G 18 10.00 Partly Cloudy SCT012 56.5 52 85% 30 0.0
07 01:35 NE 10 10.00 Fair CLR 56.7 51.3 82% 30 0.0
07 01:15 NE 9 10.00 Fair CLR 57.2 51.1 80% 30.01 0.0
07 00:55 NE 9 10.00 Fair CLR 57.6 51.1 61.7 57.6 79% 30.01 0.0
07 00:35 NE 12 G 17 10.00 Fair CLR 58.1 51.8 80% 30.01 0.0
07 00:15 NE 13 10.00 Partly Cloudy SCT015 58.3 52.2 80% 30.01 0.0
06 23:55 NE 13 G 18 10.00 Mostly Cloudy BKN015 BKN021 58.6 54 85% 30.02 0.0
06 23:35 NE 7 10.00 Overcast SCT015 OVC021 59 54.5 85% 30.03 0.0
06 23:15 NE 8 10.00 Overcast OVC023 59 54.1 84% 30.03 0.0
06 22:55 NE 9 10.00 Overcast OVC025 59.2 54.5 85% 30.03 0.0
06 22:35 NE 7 10.00 Overcast OVC025 59.2 54 83% 30.03 0.0
06 22:15 NE 7 10.00 Overcast OVC025 59.5 53.6 81% 30.02 0.0
06 21:55 NE 5 10.00 Overcast OVC027 59.9 53.6 80% 30.01 0.0
06 21:35 NE 7 10.00 Mostly Cloudy SCT027 BKN040 60.1 54 80% 29.99 0.0
06 21:15 NE 6 10.00 Mostly Cloudy BKN023 60.3 53.8 79% 29.98 0.0
06 20:55 N 9 10.00 Overcast OVC023 60.8 53.6 77% 29.97 0.0
06 20:35 N 5 10.00 Overcast BKN023 OVC040 60.8 53.6 77% 29.96 0.0
06 20:15 N 5 10.00 Overcast BKN021 OVC040 61 53.2 76% 29.95 0.0
06 19:55 N 7 10.00 Overcast SCT021 OVC038 61 53.2 76% 29.94 0.0
06 19:35 N 8 10.00 Overcast SCT021 OVC038 61.2 53.1 75% 29.94 0.0
06 19:15 N 9 10.00 Overcast OVC038 61.3 53.1 74% 29.94 0.0
06 18:55 N 7 10.00 Overcast OVC034 61.7 53.2 62.1 57.7 74% 29.93 0.0
06 18:35 N 8 10.00 Overcast OVC032 61.7 53.8 75% 29.92 0.0
06 17:55 N 9 10.00 Overcast OVC030 62.1 54 75% 29.92 0.0
06 17:35 N 8 10.00 Overcast OVC028 62.1 53.8 74% 29.92 0.0
06 17:15 N 9 10.00 Overcast OVC026 61.9 53.6 74% 29.91 0.0
06 16:55 N 10 10.00 Overcast OVC026 61.9 53.6 74% 29.92 0.0
06 16:35 N 8 10.00 Overcast OVC024 61.2 53.8 77% 29.92 0.0
06 16:15 N 9 10.00 Overcast OVC022 60.1 53.1 78% 29.93 0.0
06 15:55 N 13 10.00 Overcast OVC018 60.1 52.7 77% 29.92 0.0
Date Time (cdt) Wind (mph) Vis. (mi.) Weather Sky Cond. Air Dwpt Max. Min. Relative Humidity Wind Chill (°F) Heat Index (°F) altimeter (in) sea level (mb) 1 hr 3 hr 6 hr
6 hour
Temperature (ºF) Pressure Precipitation (in)